sensor_id;sensor_type;location;lat;lon;timestamp;P1;durP1;ratioP1;P2;durP2;ratioP2
21128;SDS011;10722;51.910;8.352;2023-04-29T00:01:05;32.42;;;22.65;;
21128;SDS011;10722;51.910;8.352;2023-04-29T00:03:50;34.00;;;23.63;;
21128;SDS011;10722;51.910;8.352;2023-04-29T00:06:35;36.55;;;24.35;;
21128;SDS011;10722;51.910;8.352;2023-04-29T00:09:21;36.80;;;24.98;;
21128;SDS011;10722;51.910;8.352;2023-04-29T00:12:06;38.60;;;26.13;;
21128;SDS011;10722;51.910;8.352;2023-04-29T00:14:51;41.45;;;27.60;;
21128;SDS011;10722;51.910;8.352;2023-04-29T00:17:36;40.72;;;28.23;;
21128;SDS011;10722;51.910;8.352;2023-04-29T00:20:21;41.80;;;28.73;;
21128;SDS011;10722;51.910;8.352;2023-04-29T00:23:07;44.92;;;29.30;;
21128;SDS011;10722;51.910;8.352;2023-04-29T00:25:52;47.80;;;30.55;;
21128;SDS011;10722;51.910;8.352;2023-04-29T00:28:37;45.78;;;29.83;;
21128;SDS011;10722;51.910;8.352;2023-04-29T00:31:23;48.05;;;32.03;;
21128;SDS011;10722;51.910;8.352;2023-04-29T00:34:08;51.85;;;32.70;;
21128;SDS011;10722;51.910;8.352;2023-04-29T00:36:53;51.80;;;33.45;;
21128;SDS011;10722;51.910;8.352;2023-04-29T00:39:38;59.22;;;36.38;;
21128;SDS011;10722;51.910;8.352;2023-04-29T00:42:24;60.15;;;36.05;;
21128;SDS011;10722;51.910;8.352;2023-04-29T00:45:10;57.63;;;36.92;;
21128;SDS011;10722;51.910;8.352;2023-04-29T00:47:55;64.30;;;38.53;;
21128;SDS011;10722;51.910;8.352;2023-04-29T00:50:41;61.20;;;38.03;;
21128;SDS011;10722;51.910;8.352;2023-04-29T00:53:26;60.85;;;38.83;;
21128;SDS011;10722;51.910;8.352;2023-04-29T00:56:12;63.22;;;39.20;;
21128;SDS011;10722;51.910;8.352;2023-04-29T00:58:57;61.85;;;38.72;;
21128;SDS011;10722;51.910;8.352;2023-04-29T01:01:42;67.03;;;40.20;;
21128;SDS011;10722;51.910;8.352;2023-04-29T01:04:29;63.95;;;39.38;;
21128;SDS011;10722;51.910;8.352;2023-04-29T01:07:16;67.97;;;40.65;;
21128;SDS011;10722;51.910;8.352;2023-04-29T01:10:05;65.35;;;39.92;;
21128;SDS011;10722;51.910;8.352;2023-04-29T01:13:00;67.15;;;39.70;;
21128;SDS011;10722;51.910;8.352;2023-04-29T01:16:00;68.00;;;40.88;;
21128;SDS011;10722;51.910;8.352;2023-04-29T01:22:16;70.70;;;41.17;;
21128;SDS011;10722;51.910;8.352;2023-04-29T01:25:00;67.88;;;40.17;;
21128;SDS011;10722;51.910;8.352;2023-04-29T01:30:41;67.68;;;41.22;;
21128;SDS011;10722;51.910;8.352;2023-04-29T01:36:32;73.18;;;43.05;;
21128;SDS011;10722;51.910;8.352;2023-04-29T01:42:33;71.47;;;43.33;;
21128;SDS011;10722;51.910;8.352;2023-04-29T01:45:23;74.72;;;43.58;;
21128;SDS011;10722;51.910;8.352;2023-04-29T01:48:10;76.28;;;44.92;;
21128;SDS011;10722;51.910;8.352;2023-04-29T01:50:57;73.97;;;43.45;;
21128;SDS011;10722;51.910;8.352;2023-04-29T01:53:42;78.55;;;43.72;;
21128;SDS011;10722;51.910;8.352;2023-04-29T01:56:27;73.78;;;43.13;;
21128;SDS011;10722;51.910;8.352;2023-04-29T01:59:12;79.10;;;43.25;;
21128;SDS011;10722;51.910;8.352;2023-04-29T02:01:56;72.30;;;41.38;;
21128;SDS011;10722;51.910;8.352;2023-04-29T02:04:42;76.85;;;41.47;;
21128;SDS011;10722;51.910;8.352;2023-04-29T02:07:27;75.00;;;40.60;;
21128;SDS011;10722;51.910;8.352;2023-04-29T02:10:13;75.47;;;40.42;;
21128;SDS011;10722;51.910;8.352;2023-04-29T02:12:58;72.03;;;38.13;;
21128;SDS011;10722;51.910;8.352;2023-04-29T02:15:43;67.15;;;36.15;;
21128;SDS011;10722;51.910;8.352;2023-04-29T02:18:28;74.85;;;37.50;;
21128;SDS011;10722;51.910;8.352;2023-04-29T02:21:13;67.47;;;35.33;;
21128;SDS011;10722;51.910;8.352;2023-04-29T02:23:58;73.57;;;37.85;;
21128;SDS011;10722;51.910;8.352;2023-04-29T02:26:43;69.68;;;37.42;;
21128;SDS011;10722;51.910;8.352;2023-04-29T02:29:29;68.22;;;36.55;;
21128;SDS011;10722;51.910;8.352;2023-04-29T02:32:14;75.22;;;38.35;;
21128;SDS011;10722;51.910;8.352;2023-04-29T02:34:59;77.28;;;38.28;;
21128;SDS011;10722;51.910;8.352;2023-04-29T02:37:44;75.80;;;38.45;;
21128;SDS011;10722;51.910;8.352;2023-04-29T02:40:30;80.18;;;39.75;;
21128;SDS011;10722;51.910;8.352;2023-04-29T02:43:15;84.47;;;40.25;;
21128;SDS011;10722;51.910;8.352;2023-04-29T02:46:00;79.82;;;40.05;;
21128;SDS011;10722;51.910;8.352;2023-04-29T02:48:45;81.57;;;40.10;;
21128;SDS011;10722;51.910;8.352;2023-04-29T02:51:31;67.32;;;36.17;;
21128;SDS011;10722;51.910;8.352;2023-04-29T02:54:16;69.03;;;36.30;;
21128;SDS011;10722;51.910;8.352;2023-04-29T02:57:01;69.60;;;37.10;;
21128;SDS011;10722;51.910;8.352;2023-04-29T02:59:47;72.03;;;37.08;;
21128;SDS011;10722;51.910;8.352;2023-04-29T03:02:32;68.15;;;37.45;;
21128;SDS011;10722;51.910;8.352;2023-04-29T03:05:17;70.93;;;37.58;;
21128;SDS011;10722;51.910;8.352;2023-04-29T03:08:02;73.15;;;38.00;;
21128;SDS011;10722;51.910;8.352;2023-04-29T03:10:48;68.82;;;38.80;;
21128;SDS011;10722;51.910;8.352;2023-04-29T03:13:33;74.05;;;39.42;;
21128;SDS011;10722;51.910;8.352;2023-04-29T03:16:18;72.88;;;39.08;;
21128;SDS011;10722;51.910;8.352;2023-04-29T03:19:03;82.18;;;42.03;;
21128;SDS011;10722;51.910;8.352;2023-04-29T03:21:48;83.85;;;42.53;;
21128;SDS011;10722;51.910;8.352;2023-04-29T03:24:37;83.13;;;42.90;;
21128;SDS011;10722;51.910;8.352;2023-04-29T03:27:22;83.00;;;42.30;;
21128;SDS011;10722;51.910;8.352;2023-04-29T03:30:07;91.22;;;44.65;;
21128;SDS011;10722;51.910;8.352;2023-04-29T03:32:52;87.75;;;43.78;;
21128;SDS011;10722;51.910;8.352;2023-04-29T03:35:38;96.93;;;46.50;;
21128;SDS011;10722;51.910;8.352;2023-04-29T03:38:23;105.10;;;47.60;;
21128;SDS011;10722;51.910;8.352;2023-04-29T03:41:08;101.25;;;49.42;;
21128;SDS011;10722;51.910;8.352;2023-04-29T03:43:53;107.55;;;49.95;;
21128;SDS011;10722;51.910;8.352;2023-04-29T03:46:39;102.90;;;50.20;;
21128;SDS011;10722;51.910;8.352;2023-04-29T03:49:24;101.80;;;49.17;;
21128;SDS011;10722;51.910;8.352;2023-04-29T03:52:09;112.40;;;51.50;;
21128;SDS011;10722;51.910;8.352;2023-04-29T03:54:54;109.72;;;51.55;;
21128;SDS011;10722;51.910;8.352;2023-04-29T03:57:39;108.28;;;51.97;;
21128;SDS011;10722;51.910;8.352;2023-04-29T04:00:26;101.40;;;50.00;;
21128;SDS011;10722;51.910;8.352;2023-04-29T04:03:12;113.80;;;51.58;;
21128;SDS011;10722;51.910;8.352;2023-04-29T04:05:57;109.57;;;50.67;;
21128;SDS011;10722;51.910;8.352;2023-04-29T04:08:42;104.95;;;50.53;;
21128;SDS011;10722;51.910;8.352;2023-04-29T04:11:27;108.13;;;50.60;;
21128;SDS011;10722;51.910;8.352;2023-04-29T04:14:13;101.28;;;50.42;;
21128;SDS011;10722;51.910;8.352;2023-04-29T04:16:58;99.37;;;48.83;;
21128;SDS011;10722;51.910;8.352;2023-04-29T04:19:44;106.07;;;50.85;;
21128;SDS011;10722;51.910;8.352;2023-04-29T04:22:29;95.32;;;50.25;;
21128;SDS011;10722;51.910;8.352;2023-04-29T04:25:17;104.68;;;50.95;;
21128;SDS011;10722;51.910;8.352;2023-04-29T04:28:02;92.82;;;49.55;;
21128;SDS011;10722;51.910;8.352;2023-04-29T04:30:47;107.47;;;52.38;;
21128;SDS011;10722;51.910;8.352;2023-04-29T04:33:33;106.82;;;52.53;;
21128;SDS011;10722;51.910;8.352;2023-04-29T04:36:17;95.97;;;49.75;;
21128;SDS011;10722;51.910;8.352;2023-04-29T04:39:02;93.10;;;50.00;;
21128;SDS011;10722;51.910;8.352;2023-04-29T04:41:48;99.38;;;51.90;;
21128;SDS011;10722;51.910;8.352;2023-04-29T04:44:33;93.13;;;50.30;;
21128;SDS011;10722;51.910;8.352;2023-04-29T04:47:19;94.68;;;51.08;;
21128;SDS011;10722;51.910;8.352;2023-04-29T04:50:04;90.00;;;50.88;;
21128;SDS011;10722;51.910;8.352;2023-04-29T04:52:50;94.57;;;52.65;;
21128;SDS011;10722;51.910;8.352;2023-04-29T04:55:35;106.03;;;54.30;;
21128;SDS011;10722;51.910;8.352;2023-04-29T04:58:20;102.53;;;52.67;;
21128;SDS011;10722;51.910;8.352;2023-04-29T05:01:06;106.38;;;53.40;;
21128;SDS011;10722;51.910;8.352;2023-04-29T05:03:51;109.65;;;56.00;;
21128;SDS011;10722;51.910;8.352;2023-04-29T05:06:37;112.70;;;55.45;;
21128;SDS011;10722;51.910;8.352;2023-04-29T05:09:22;111.93;;;54.28;;
21128;SDS011;10722;51.910;8.352;2023-04-29T05:12:07;112.13;;;55.83;;
21128;SDS011;10722;51.910;8.352;2023-04-29T05:14:52;102.43;;;53.93;;
21128;SDS011;10722;51.910;8.352;2023-04-29T05:17:38;110.93;;;54.67;;
21128;SDS011;10722;51.910;8.352;2023-04-29T05:20:23;101.22;;;52.60;;
21128;SDS011;10722;51.910;8.352;2023-04-29T05:23:08;105.18;;;53.50;;
21128;SDS011;10722;51.910;8.352;2023-04-29T05:25:53;105.30;;;52.58;;
21128;SDS011;10722;51.910;8.352;2023-04-29T05:28:39;106.50;;;54.03;;
21128;SDS011;10722;51.910;8.352;2023-04-29T05:31:24;97.47;;;52.20;;
21128;SDS011;10722;51.910;8.352;2023-04-29T05:34:09;107.97;;;53.63;;
21128;SDS011;10722;51.910;8.352;2023-04-29T05:36:54;97.13;;;50.03;;
21128;SDS011;10722;51.910;8.352;2023-04-29T05:39:39;96.25;;;49.80;;
21128;SDS011;10722;51.910;8.352;2023-04-29T05:42:24;95.00;;;50.03;;
21128;SDS011;10722;51.910;8.352;2023-04-29T05:45:10;95.53;;;49.45;;
21128;SDS011;10722;51.910;8.352;2023-04-29T05:47:55;89.22;;;49.00;;
21128;SDS011;10722;51.910;8.352;2023-04-29T05:50:40;85.32;;;46.25;;
21128;SDS011;10722;51.910;8.352;2023-04-29T05:53:26;87.57;;;47.97;;
21128;SDS011;10722;51.910;8.352;2023-04-29T05:56:11;85.03;;;46.55;;
21128;SDS011;10722;51.910;8.352;2023-04-29T05:58:56;79.70;;;44.53;;
21128;SDS011;10722;51.910;8.352;2023-04-29T06:01:42;72.18;;;41.58;;
21128;SDS011;10722;51.910;8.352;2023-04-29T06:04:26;75.10;;;43.30;;
21128;SDS011;10722;51.910;8.352;2023-04-29T06:07:12;74.90;;;42.67;;
21128;SDS011;10722;51.910;8.352;2023-04-29T06:09:58;72.82;;;43.03;;
21128;SDS011;10722;51.910;8.352;2023-04-29T06:12:43;79.45;;;44.20;;
21128;SDS011;10722;51.910;8.352;2023-04-29T06:15:28;73.00;;;42.42;;
21128;SDS011;10722;51.910;8.352;2023-04-29T06:18:13;67.80;;;42.22;;
21128;SDS011;10722;51.910;8.352;2023-04-29T06:20:58;68.97;;;41.67;;
21128;SDS011;10722;51.910;8.352;2023-04-29T06:23:43;68.15;;;41.30;;
21128;SDS011;10722;51.910;8.352;2023-04-29T06:26:29;69.28;;;42.20;;
21128;SDS011;10722;51.910;8.352;2023-04-29T06:29:14;64.43;;;40.67;;
21128;SDS011;10722;51.910;8.352;2023-04-29T06:32:00;61.58;;;40.05;;
21128;SDS011;10722;51.910;8.352;2023-04-29T06:34:45;65.55;;;40.58;;
21128;SDS011;10722;51.910;8.352;2023-04-29T06:37:30;64.05;;;39.67;;
21128;SDS011;10722;51.910;8.352;2023-04-29T06:40:15;69.60;;;41.83;;
21128;SDS011;10722;51.910;8.352;2023-04-29T06:43:00;65.38;;;40.92;;
21128;SDS011;10722;51.910;8.352;2023-04-29T06:45:46;68.55;;;40.70;;
21128;SDS011;10722;51.910;8.352;2023-04-29T06:48:31;63.00;;;40.95;;
21128;SDS011;10722;51.910;8.352;2023-04-29T06:51:17;63.00;;;40.97;;
21128;SDS011;10722;51.910;8.352;2023-04-29T06:54:02;59.47;;;40.28;;
21128;SDS011;10722;51.910;8.352;2023-04-29T06:56:48;65.18;;;41.55;;
21128;SDS011;10722;51.910;8.352;2023-04-29T06:59:33;67.63;;;42.97;;
21128;SDS011;10722;51.910;8.352;2023-04-29T07:02:19;68.20;;;42.20;;
21128;SDS011;10722;51.910;8.352;2023-04-29T07:05:04;66.50;;;42.60;;
21128;SDS011;10722;51.910;8.352;2023-04-29T07:07:50;62.17;;;41.92;;
21128;SDS011;10722;51.910;8.352;2023-04-29T07:10:35;65.97;;;41.53;;
21128;SDS011;10722;51.910;8.352;2023-04-29T07:13:21;69.38;;;42.40;;
21128;SDS011;10722;51.910;8.352;2023-04-29T07:16:13;62.60;;;41.90;;
21128;SDS011;10722;51.910;8.352;2023-04-29T07:18:59;60.75;;;39.58;;
21128;SDS011;10722;51.910;8.352;2023-04-29T07:21:44;61.78;;;41.40;;
21128;SDS011;10722;51.910;8.352;2023-04-29T07:24:30;58.53;;;40.30;;
21128;SDS011;10722;51.910;8.352;2023-04-29T07:27:15;71.38;;;49.28;;
21128;SDS011;10722;51.910;8.352;2023-04-29T07:30:01;56.60;;;39.33;;
21128;SDS011;10722;51.910;8.352;2023-04-29T07:32:47;54.92;;;37.90;;
21128;SDS011;10722;51.910;8.352;2023-04-29T07:35:33;52.55;;;37.55;;
21128;SDS011;10722;51.910;8.352;2023-04-29T07:38:18;56.08;;;39.75;;
21128;SDS011;10722;51.910;8.352;2023-04-29T07:41:04;53.05;;;37.90;;
21128;SDS011;10722;51.910;8.352;2023-04-29T07:43:49;53.63;;;37.50;;
21128;SDS011;10722;51.910;8.352;2023-04-29T07:46:34;52.95;;;38.00;;
21128;SDS011;10722;51.910;8.352;2023-04-29T07:49:20;56.50;;;39.30;;
21128;SDS011;10722;51.910;8.352;2023-04-29T07:52:05;51.30;;;36.83;;
21128;SDS011;10722;51.910;8.352;2023-04-29T07:54:51;52.35;;;37.45;;
21128;SDS011;10722;51.910;8.352;2023-04-29T07:57:37;54.67;;;37.35;;
21128;SDS011;10722;51.910;8.352;2023-04-29T08:00:22;55.22;;;38.00;;
21128;SDS011;10722;51.910;8.352;2023-04-29T08:03:08;51.45;;;36.97;;
21128;SDS011;10722;51.910;8.352;2023-04-29T08:05:54;53.67;;;37.03;;
21128;SDS011;10722;51.910;8.352;2023-04-29T08:08:39;53.45;;;36.53;;
21128;SDS011;10722;51.910;8.352;2023-04-29T08:11:25;54.53;;;35.80;;
21128;SDS011;10722;51.910;8.352;2023-04-29T08:14:10;51.67;;;35.03;;
21128;SDS011;10722;51.910;8.352;2023-04-29T08:16:55;52.13;;;35.72;;
21128;SDS011;10722;51.910;8.352;2023-04-29T08:19:41;49.13;;;34.78;;
21128;SDS011;10722;51.910;8.352;2023-04-29T08:22:26;52.63;;;36.03;;
21128;SDS011;10722;51.910;8.352;2023-04-29T08:25:12;54.10;;;35.10;;
21128;SDS011;10722;51.910;8.352;2023-04-29T08:27:57;51.47;;;34.92;;
21128;SDS011;10722;51.910;8.352;2023-04-29T08:30:42;47.40;;;33.15;;
21128;SDS011;10722;51.910;8.352;2023-04-29T08:33:28;49.03;;;33.33;;
21128;SDS011;10722;51.910;8.352;2023-04-29T08:36:13;49.55;;;33.90;;
21128;SDS011;10722;51.910;8.352;2023-04-29T08:38:58;47.75;;;33.15;;
21128;SDS011;10722;51.910;8.352;2023-04-29T08:41:44;45.42;;;32.72;;
21128;SDS011;10722;51.910;8.352;2023-04-29T08:44:29;46.33;;;33.20;;
21128;SDS011;10722;51.910;8.352;2023-04-29T08:47:14;47.28;;;32.17;;
21128;SDS011;10722;51.910;8.352;2023-04-29T08:50:02;43.58;;;32.17;;
21128;SDS011;10722;51.910;8.352;2023-04-29T08:52:48;47.72;;;33.00;;
21128;SDS011;10722;51.910;8.352;2023-04-29T08:55:35;44.10;;;31.30;;
21128;SDS011;10722;51.910;8.352;2023-04-29T08:58:24;43.30;;;30.90;;
21128;SDS011;10722;51.910;8.352;2023-04-29T09:01:10;41.70;;;30.10;;
21128;SDS011;10722;51.910;8.352;2023-04-29T09:07:25;41.72;;;28.38;;
21128;SDS011;10722;51.910;8.352;2023-04-29T09:10:11;39.05;;;27.52;;
21128;SDS011;10722;51.910;8.352;2023-04-29T09:12:57;39.50;;;28.38;;
21128;SDS011;10722;51.910;8.352;2023-04-29T09:15:42;39.70;;;27.65;;
21128;SDS011;10722;51.910;8.352;2023-04-29T09:18:47;41.65;;;26.70;;
21128;SDS011;10722;51.910;8.352;2023-04-29T09:21:33;35.20;;;25.95;;
21128;SDS011;10722;51.910;8.352;2023-04-29T09:24:19;35.58;;;25.58;;
21128;SDS011;10722;51.910;8.352;2023-04-29T09:27:09;35.47;;;25.02;;
21128;SDS011;10722;51.910;8.352;2023-04-29T09:30:10;33.60;;;25.55;;
21128;SDS011;10722;51.910;8.352;2023-04-29T09:33:03;34.30;;;24.42;;
21128;SDS011;10722;51.910;8.352;2023-04-29T09:35:52;31.67;;;23.50;;
21128;SDS011;10722;51.910;8.352;2023-04-29T09:38:38;35.65;;;23.85;;
21128;SDS011;10722;51.910;8.352;2023-04-29T09:41:42;31.52;;;23.20;;
21128;SDS011;10722;51.910;8.352;2023-04-29T09:44:41;33.38;;;24.27;;
21128;SDS011;10722;51.910;8.352;2023-04-29T09:47:30;35.00;;;24.27;;
21128;SDS011;10722;51.910;8.352;2023-04-29T09:50:15;33.20;;;23.92;;
21128;SDS011;10722;51.910;8.352;2023-04-29T09:53:00;32.17;;;22.85;;
21128;SDS011;10722;51.910;8.352;2023-04-29T09:58:37;30.27;;;22.10;;
21128;SDS011;10722;51.910;8.352;2023-04-29T10:01:26;31.27;;;23.38;;
21128;SDS011;10722;51.910;8.352;2023-04-29T10:04:12;33.28;;;24.73;;
21128;SDS011;10722;51.910;8.352;2023-04-29T10:06:59;33.35;;;24.15;;
21128;SDS011;10722;51.910;8.352;2023-04-29T10:09:45;35.22;;;23.23;;
21128;SDS011;10722;51.910;8.352;2023-04-29T10:12:31;31.33;;;23.05;;
21128;SDS011;10722;51.910;8.352;2023-04-29T10:15:27;33.65;;;23.88;;
21128;SDS011;10722;51.910;8.352;2023-04-29T10:18:25;32.80;;;23.67;;
21128;SDS011;10722;51.910;8.352;2023-04-29T10:21:20;32.55;;;23.58;;
21128;SDS011;10722;51.910;8.352;2023-04-29T10:24:10;33.65;;;22.63;;
21128;SDS011;10722;51.910;8.352;2023-04-29T10:26:58;31.98;;;21.90;;
21128;SDS011;10722;51.910;8.352;2023-04-29T10:29:45;28.70;;;19.85;;
21128;SDS011;10722;51.910;8.352;2023-04-29T10:32:32;30.63;;;21.98;;
21128;SDS011;10722;51.910;8.352;2023-04-29T10:35:34;26.67;;;20.00;;
21128;SDS011;10722;51.910;8.352;2023-04-29T10:38:23;29.98;;;20.20;;
21128;SDS011;10722;51.910;8.352;2023-04-29T10:41:22;29.20;;;19.27;;
21128;SDS011;10722;51.910;8.352;2023-04-29T10:44:10;27.50;;;18.48;;
21128;SDS011;10722;51.910;8.352;2023-04-29T10:50:03;28.80;;;19.48;;
21128;SDS011;10722;51.910;8.352;2023-04-29T10:52:53;30.65;;;19.98;;
21128;SDS011;10722;51.910;8.352;2023-04-29T10:55:40;28.00;;;19.77;;
21128;SDS011;10722;51.910;8.352;2023-04-29T10:58:35;30.30;;;19.92;;
21128;SDS011;10722;51.910;8.352;2023-04-29T11:01:43;29.63;;;19.67;;
21128;SDS011;10722;51.910;8.352;2023-04-29T11:04:42;31.80;;;20.10;;
21128;SDS011;10722;51.910;8.352;2023-04-29T11:11:03;27.95;;;18.90;;
21128;SDS011;10722;51.910;8.352;2023-04-29T11:13:49;29.33;;;19.08;;
21128;SDS011;10722;51.910;8.352;2023-04-29T11:16:34;28.27;;;19.30;;
21128;SDS011;10722;51.910;8.352;2023-04-29T11:19:20;29.25;;;18.75;;
21128;SDS011;10722;51.910;8.352;2023-04-29T11:22:13;28.38;;;19.00;;
21128;SDS011;10722;51.910;8.352;2023-04-29T11:24:59;28.90;;;19.33;;
21128;SDS011;10722;51.910;8.352;2023-04-29T11:27:46;30.45;;;19.60;;
21128;SDS011;10722;51.910;8.352;2023-04-29T11:30:33;27.13;;;17.10;;
21128;SDS011;10722;51.910;8.352;2023-04-29T11:33:19;26.65;;;17.27;;
21128;SDS011;10722;51.910;8.352;2023-04-29T11:36:05;25.23;;;16.50;;
21128;SDS011;10722;51.910;8.352;2023-04-29T11:38:50;26.17;;;15.25;;
21128;SDS011;10722;51.910;8.352;2023-04-29T11:41:35;29.00;;;17.90;;
21128;SDS011;10722;51.910;8.352;2023-04-29T11:44:22;25.77;;;16.27;;
21128;SDS011;10722;51.910;8.352;2023-04-29T11:47:07;25.05;;;16.75;;
21128;SDS011;10722;51.910;8.352;2023-04-29T11:49:52;24.85;;;17.17;;
21128;SDS011;10722;51.910;8.352;2023-04-29T11:52:38;27.90;;;16.80;;
21128;SDS011;10722;51.910;8.352;2023-04-29T11:55:24;25.25;;;16.92;;
21128;SDS011;10722;51.910;8.352;2023-04-29T11:58:09;23.63;;;16.48;;
21128;SDS011;10722;51.910;8.352;2023-04-29T12:00:56;25.40;;;15.80;;
21128;SDS011;10722;51.910;8.352;2023-04-29T12:03:42;26.80;;;16.42;;
21128;SDS011;10722;51.910;8.352;2023-04-29T12:06:28;25.30;;;15.35;;
21128;SDS011;10722;51.910;8.352;2023-04-29T12:09:13;26.23;;;16.40;;
21128;SDS011;10722;51.910;8.352;2023-04-29T12:12:00;27.92;;;16.60;;
21128;SDS011;10722;51.910;8.352;2023-04-29T12:14:46;25.58;;;16.10;;
21128;SDS011;10722;51.910;8.352;2023-04-29T12:17:32;26.50;;;14.95;;
21128;SDS011;10722;51.910;8.352;2023-04-29T12:20:17;26.40;;;16.63;;
21128;SDS011;10722;51.910;8.352;2023-04-29T12:23:10;24.08;;;15.32;;
21128;SDS011;10722;51.910;8.352;2023-04-29T12:25:56;24.92;;;15.07;;
21128;SDS011;10722;51.910;8.352;2023-04-29T12:28:42;25.58;;;15.68;;
21128;SDS011;10722;51.910;8.352;2023-04-29T12:31:31;25.42;;;15.35;;
21128;SDS011;10722;51.910;8.352;2023-04-29T12:34:23;23.92;;;13.88;;
21128;SDS011;10722;51.910;8.352;2023-04-29T12:37:15;21.85;;;12.05;;
21128;SDS011;10722;51.910;8.352;2023-04-29T12:40:00;20.17;;;11.52;;
21128;SDS011;10722;51.910;8.352;2023-04-29T12:42:46;20.42;;;11.90;;
21128;SDS011;10722;51.910;8.352;2023-04-29T12:45:32;20.85;;;12.18;;
21128;SDS011;10722;51.910;8.352;2023-04-29T12:48:18;20.08;;;12.40;;
21128;SDS011;10722;51.910;8.352;2023-04-29T12:51:13;22.33;;;13.18;;
21128;SDS011;10722;51.910;8.352;2023-04-29T12:54:00;23.95;;;13.82;;
21128;SDS011;10722;51.910;8.352;2023-04-29T12:56:46;23.55;;;13.80;;
21128;SDS011;10722;51.910;8.352;2023-04-29T12:59:32;23.98;;;13.95;;
21128;SDS011;10722;51.910;8.352;2023-04-29T13:02:18;24.70;;;13.85;;
21128;SDS011;10722;51.910;8.352;2023-04-29T13:05:03;22.73;;;14.82;;
21128;SDS011;10722;51.910;8.352;2023-04-29T13:07:49;23.33;;;13.77;;
21128;SDS011;10722;51.910;8.352;2023-04-29T13:10:34;25.88;;;13.63;;
21128;SDS011;10722;51.910;8.352;2023-04-29T13:13:20;23.50;;;13.90;;
21128;SDS011;10722;51.910;8.352;2023-04-29T13:16:05;20.20;;;12.02;;
21128;SDS011;10722;51.910;8.352;2023-04-29T13:18:51;21.42;;;12.98;;
21128;SDS011;10722;51.910;8.352;2023-04-29T13:21:56;19.88;;;12.48;;
21128;SDS011;10722;51.910;8.352;2023-04-29T13:24:42;23.77;;;13.60;;
21128;SDS011;10722;51.910;8.352;2023-04-29T13:27:27;19.67;;;11.70;;
21128;SDS011;10722;51.910;8.352;2023-04-29T13:30:12;23.52;;;12.57;;
21128;SDS011;10722;51.910;8.352;2023-04-29T13:32:58;20.55;;;12.55;;
21128;SDS011;10722;51.910;8.352;2023-04-29T13:35:55;22.20;;;12.15;;
21128;SDS011;10722;51.910;8.352;2023-04-29T13:38:41;19.52;;;11.55;;
21128;SDS011;10722;51.910;8.352;2023-04-29T13:41:26;19.70;;;12.65;;
21128;SDS011;10722;51.910;8.352;2023-04-29T13:44:12;20.40;;;11.48;;
21128;SDS011;10722;51.910;8.352;2023-04-29T13:47:00;20.90;;;12.23;;
21128;SDS011;10722;51.910;8.352;2023-04-29T13:49:45;20.48;;;11.60;;
21128;SDS011;10722;51.910;8.352;2023-04-29T13:52:50;20.65;;;11.82;;
21128;SDS011;10722;51.910;8.352;2023-04-29T13:55:39;23.90;;;11.90;;
21128;SDS011;10722;51.910;8.352;2023-04-29T13:58:44;21.90;;;11.95;;
21128;SDS011;10722;51.910;8.352;2023-04-29T14:01:32;22.35;;;12.27;;
21128;SDS011;10722;51.910;8.352;2023-04-29T14:04:20;20.58;;;11.60;;
21128;SDS011;10722;51.910;8.352;2023-04-29T14:07:05;20.35;;;11.05;;
21128;SDS011;10722;51.910;8.352;2023-04-29T14:09:50;25.67;;;12.35;;
21128;SDS011;10722;51.910;8.352;2023-04-29T14:12:36;21.98;;;11.20;;
21128;SDS011;10722;51.910;8.352;2023-04-29T14:15:21;20.17;;;11.20;;
21128;SDS011;10722;51.910;8.352;2023-04-29T14:18:06;19.23;;;10.93;;
21128;SDS011;10722;51.910;8.352;2023-04-29T14:20:52;22.23;;;10.43;;
21128;SDS011;10722;51.910;8.352;2023-04-29T14:23:37;18.00;;;8.98;;
21128;SDS011;10722;51.910;8.352;2023-04-29T14:26:23;19.70;;;8.98;;
21128;SDS011;10722;51.910;8.352;2023-04-29T14:29:13;17.08;;;8.18;;
21128;SDS011;10722;51.910;8.352;2023-04-29T14:31:58;16.77;;;8.45;;
21128;SDS011;10722;51.910;8.352;2023-04-29T14:34:43;16.77;;;8.93;;
21128;SDS011;10722;51.910;8.352;2023-04-29T14:37:29;16.98;;;9.10;;
21128;SDS011;10722;51.910;8.352;2023-04-29T14:40:14;17.80;;;9.32;;
21128;SDS011;10722;51.910;8.352;2023-04-29T14:43:00;17.08;;;9.40;;
21128;SDS011;10722;51.910;8.352;2023-04-29T14:45:45;16.17;;;8.73;;
21128;SDS011;10722;51.910;8.352;2023-04-29T14:48:30;17.10;;;9.00;;
21128;SDS011;10722;51.910;8.352;2023-04-29T14:51:15;20.42;;;9.95;;
21128;SDS011;10722;51.910;8.352;2023-04-29T14:54:00;18.50;;;9.57;;
21128;SDS011;10722;51.910;8.352;2023-04-29T14:56:46;18.60;;;10.00;;
21128;SDS011;10722;51.910;8.352;2023-04-29T14:59:31;16.67;;;8.98;;
21128;SDS011;10722;51.910;8.352;2023-04-29T15:02:16;19.15;;;9.90;;
21128;SDS011;10722;51.910;8.352;2023-04-29T15:05:02;17.70;;;9.63;;
21128;SDS011;10722;51.910;8.352;2023-04-29T15:07:47;18.23;;;8.82;;
21128;SDS011;10722;51.910;8.352;2023-04-29T15:10:32;16.85;;;8.65;;
21128;SDS011;10722;51.910;8.352;2023-04-29T15:13:18;17.60;;;8.32;;
21128;SDS011;10722;51.910;8.352;2023-04-29T15:16:03;13.52;;;6.35;;
21128;SDS011;10722;51.910;8.352;2023-04-29T15:18:49;15.32;;;6.93;;
21128;SDS011;10722;51.910;8.352;2023-04-29T15:21:35;15.65;;;7.13;;
21128;SDS011;10722;51.910;8.352;2023-04-29T15:24:20;15.73;;;6.03;;
21128;SDS011;10722;51.910;8.352;2023-04-29T15:27:05;14.25;;;6.53;;
21128;SDS011;10722;51.910;8.352;2023-04-29T15:29:50;14.30;;;5.80;;
21128;SDS011;10722;51.910;8.352;2023-04-29T15:32:36;14.38;;;5.47;;
21128;SDS011;10722;51.910;8.352;2023-04-29T15:35:21;17.35;;;6.30;;
21128;SDS011;10722;51.910;8.352;2023-04-29T15:38:07;14.75;;;6.05;;
21128;SDS011;10722;51.910;8.352;2023-04-29T15:40:52;13.77;;;6.18;;
21128;SDS011;10722;51.910;8.352;2023-04-29T15:43:38;22.25;;;13.18;;
21128;SDS011;10722;51.910;8.352;2023-04-29T15:46:23;30.20;;;17.33;;
21128;SDS011;10722;51.910;8.352;2023-04-29T15:49:09;13.43;;;6.65;;
21128;SDS011;10722;51.910;8.352;2023-04-29T15:51:54;14.45;;;6.68;;
21128;SDS011;10722;51.910;8.352;2023-04-29T15:54:39;15.48;;;7.00;;
21128;SDS011;10722;51.910;8.352;2023-04-29T15:57:28;13.13;;;6.18;;
21128;SDS011;10722;51.910;8.352;2023-04-29T16:00:13;16.33;;;6.43;;
21128;SDS011;10722;51.910;8.352;2023-04-29T16:02:58;15.82;;;6.68;;
21128;SDS011;10722;51.910;8.352;2023-04-29T16:05:44;20.45;;;6.13;;
21128;SDS011;10722;51.910;8.352;2023-04-29T16:08:29;16.38;;;5.97;;
21128;SDS011;10722;51.910;8.352;2023-04-29T16:11:14;13.90;;;5.47;;
21128;SDS011;10722;51.910;8.352;2023-04-29T16:13:59;16.10;;;5.82;;
21128;SDS011;10722;51.910;8.352;2023-04-29T16:16:44;15.07;;;6.00;;
21128;SDS011;10722;51.910;8.352;2023-04-29T16:19:30;15.77;;;5.85;;
21128;SDS011;10722;51.910;8.352;2023-04-29T16:22:16;12.85;;;5.53;;
21128;SDS011;10722;51.910;8.352;2023-04-29T16:25:01;14.05;;;5.68;;
21128;SDS011;10722;51.910;8.352;2023-04-29T16:27:47;13.10;;;5.60;;
21128;SDS011;10722;51.910;8.352;2023-04-29T16:30:32;16.08;;;5.85;;
21128;SDS011;10722;51.910;8.352;2023-04-29T16:33:18;13.23;;;5.65;;
21128;SDS011;10722;51.910;8.352;2023-04-29T16:36:04;13.88;;;5.57;;
21128;SDS011;10722;51.910;8.352;2023-04-29T16:38:50;15.18;;;5.80;;